createdAt,value
2022-11-29T00:02:19.821Z,102114.50
2022-11-29T00:04:50.305Z,102122.47
2022-11-29T00:07:21.126Z,102117.13
2022-11-29T00:09:51.259Z,102123.25
2022-11-29T00:12:21.816Z,102118.91
2022-11-29T00:14:53.527Z,102116.28
2022-11-29T00:17:24.226Z,102122.47
2022-11-29T00:19:56.165Z,102115.41
2022-11-29T00:22:26.897Z,102114.50
2022-11-29T00:24:57.217Z,102117.13
2022-11-29T00:27:28.229Z,102119.69
2022-11-29T00:30:00.626Z,102123.19
2022-11-29T00:32:31.285Z,102119.75
2022-11-29T00:35:06.617Z,102126.72
2022-11-29T00:37:40.416Z,102126.72
2022-11-29T00:40:11.575Z,102121.41
2022-11-29T00:42:42.074Z,102126.66
2022-11-29T00:45:14.165Z,102125.75
2022-11-29T00:47:44.906Z,102125.75
2022-11-29T00:50:15.166Z,102129.28
2022-11-29T00:52:45.885Z,102124.94
2022-11-29T00:55:17.344Z,102120.53
2022-11-29T00:57:47.856Z,102120.53
2022-11-29T01:00:20.995Z,102117.06
2022-11-29T01:02:51.574Z,102113.56
2022-11-29T01:05:21.709Z,102117.91
2022-11-29T01:07:52.422Z,102113.56
2022-11-29T01:10:22.785Z,102116.19
2022-11-29T01:12:53.568Z,102110.88
2022-11-29T01:15:26.487Z,102100.41
2022-11-29T01:17:57.085Z,102109.16
2022-11-29T01:20:27.595Z,102109.91
2022-11-29T01:22:58.955Z,102104.75
2022-11-29T01:25:29.717Z,102109.16
2022-11-29T01:28:01.486Z,102109.09
2022-11-29T01:30:33.259Z,102100.47
2022-11-29T01:33:03.846Z,102109.09
2022-11-29T01:35:34.757Z,102107.28
2022-11-29T01:38:05.268Z,102115.06
2022-11-29T01:40:35.538Z,102119.47
2022-11-29T01:43:17.275Z,102117.75
2022-11-29T01:45:51.516Z,102120.38
2022-11-29T01:48:26.826Z,102116.81
2022-11-29T01:51:00.936Z,102115.97
2022-11-29T01:53:31.584Z,102116.84
2022-11-29T01:56:06.009Z,102118.59
2022-11-29T01:58:37.839Z,102126.38
2022-11-29T02:01:09.619Z,102120.25
2022-11-29T02:03:41.605Z,102124.59
2022-11-29T02:06:12.297Z,102118.41
2022-11-29T02:08:44.519Z,102121.91
2022-11-29T02:12:04.147Z,102120.19
2022-11-29T02:15:00.518Z,102121.03
2022-11-29T02:17:42.940Z,102121.09
2022-11-29T02:20:49.767Z,102117.47
2022-11-29T02:23:50.785Z,102122.72
2022-11-29T02:26:45.647Z,102126.25
2022-11-29T02:29:53.058Z,102128.88
2022-11-29T02:32:58.696Z,102133.19
2022-11-29T02:36:00.935Z,102134.91
2022-11-29T02:38:46.415Z,102127.06
2022-11-29T02:41:31.865Z,102128.78
2022-11-29T02:44:47.726Z,102133.91
2022-11-29T02:47:29.866Z,102127.72
2022-11-29T02:50:21.716Z,102135.56
2022-11-29T02:53:03.467Z,102133.84
2022-11-29T02:55:45.607Z,102138.97
2022-11-29T02:58:18.915Z,102139.81
2022-11-29T03:01:00.801Z,102145.81
2022-11-29T03:03:38.975Z,102144.97
2022-11-29T03:06:19.939Z,102138.03
2022-11-29T03:09:01.778Z,102144.97
2022-11-29T03:11:41.757Z,102149.25
2022-11-29T03:14:23.048Z,102151.00
2022-11-29T03:17:00.505Z,102150.06
2022-11-29T03:19:57.347Z,102142.22
2022-11-29T03:22:43.556Z,102151.72
2022-11-29T03:25:24.936Z,102153.38
2022-11-29T03:28:02.780Z,102111.00
2022-11-29T03:30:40.647Z,102147.88
2022-11-29T03:33:18.947Z,102154.75
2022-11-29T03:35:56.527Z,102157.22
2022-11-29T03:38:34.804Z,102164.13
2022-11-29T03:41:16.537Z,102164.13
2022-11-29T03:43:55.888Z,102163.97
2022-11-29T03:46:32.238Z,102161.28
2022-11-29T03:49:10.374Z,102163.66
2022-11-29T03:51:57.787Z,102159.28
2022-11-29T03:54:37.495Z,102160.94
2022-11-29T03:57:09.115Z,102166.88
2022-11-29T03:59:57.962Z,102172.06
2022-11-29T04:03:15.606Z,102178.34
2022-11-29T04:06:12.736Z,102179.00
2022-11-29T04:09:23.181Z,102180.66
2022-11-29T04:12:24.067Z,102182.41
2022-11-29T04:15:26.868Z,102183.28
2022-11-29T04:18:39.167Z,102183.13
2022-11-29T04:22:01.376Z,102188.34
2022-11-29T04:25:14.868Z,102186.56
2022-11-29T04:28:21.035Z,102189.13
2022-11-29T04:31:01.919Z,102196.13
2022-11-29T04:34:10.167Z,102190.84
2022-11-29T04:37:19.336Z,102196.00
2022-11-29T04:40:31.957Z,102196.84
2022-11-29T04:43:36.616Z,102197.72
2022-11-29T04:46:36.141Z,102201.97
2022-11-29T04:49:22.430Z,102209.00
2022-11-29T04:52:17.561Z,102210.72
2022-11-29T04:54:56.566Z,102210.59
2022-11-29T04:57:38.747Z,102209.63
2022-11-29T05:00:21.763Z,102213.84
2022-11-29T05:02:58.238Z,102213.84
2022-11-29T05:05:37.608Z,102212.06
2022-11-29T05:08:28.517Z,102209.38
2022-11-29T05:11:08.095Z,102212.81
2022-11-29T05:13:52.126Z,102211.94
2022-11-29T05:16:47.393Z,102223.28
2022-11-29T05:19:37.746Z,102220.50
2022-11-29T05:22:25.427Z,102233.66
2022-11-29T05:25:04.617Z,102231.88
2022-11-29T05:27:48.526Z,102231.88
2022-11-29T05:30:22.281Z,102236.19
2022-11-29T05:33:01.536Z,102240.47
2022-11-29T05:35:54.715Z,102235.25
2022-11-29T05:38:53.096Z,102236.97
2022-11-29T05:41:57.807Z,102243.09
2022-11-29T05:44:35.378Z,102236.97
2022-11-29T05:47:10.288Z,102242.19
2022-11-29T05:49:51.959Z,102247.41
2022-11-29T05:52:27.197Z,102250.94
2022-11-29T05:55:29.756Z,102249.97
2022-11-29T05:58:04.047Z,102252.47
2022-11-29T06:00:43.546Z,102250.69
2022-11-29T06:03:22.173Z,102255.03
2022-11-29T06:05:59.571Z,102247.19
2022-11-29T06:08:39.076Z,102260.25
2022-11-29T06:11:25.230Z,102253.31
2022-11-29T06:14:06.548Z,102260.31
2022-11-29T06:17:27.198Z,102260.25
2022-11-29T06:20:32.265Z,102259.44
2022-11-29T06:23:30.445Z,102261.09
2022-11-29T06:26:19.976Z,102274.97
2022-11-29T06:29:03.486Z,102275.56
2022-11-29T06:31:39.213Z,102265.94
2022-11-29T06:34:19.588Z,102275.38
2022-11-29T06:36:54.577Z,102274.59
2022-11-29T06:39:27.488Z,102272.00
2022-11-29T06:41:58.345Z,102278.75
2022-11-29T06:44:33.095Z,102286.69
2022-11-29T06:47:09.115Z,102287.50
2022-11-29T06:49:47.219Z,102295.19
2022-11-29T06:52:29.257Z,102282.78
2022-11-29T06:55:28.529Z,102286.47
2022-11-29T06:58:09.104Z,102292.66
2022-11-29T07:00:53.234Z,102293.41
2022-11-29T07:03:56.046Z,102290.63
2022-11-29T07:06:30.008Z,102293.25
2022-11-29T07:09:05.185Z,102302.88
2022-11-29T07:11:38.646Z,102295.03
2022-11-29T07:14:10.124Z,102297.72
2022-11-29T07:16:57.335Z,102299.59
2022-11-29T07:19:39.456Z,102310.06
2022-11-29T07:22:24.145Z,102303.13
2022-11-29T07:25:02.583Z,102305.66
2022-11-29T07:27:46.337Z,102304.84
2022-11-29T07:30:22.016Z,102303.94
2022-11-29T07:33:06.616Z,102307.28
2022-11-29T07:35:48.461Z,102309.16
2022-11-29T07:38:27.375Z,102313.41
2022-11-29T07:41:05.027Z,102310.00
2022-11-29T07:43:51.057Z,102311.09
2022-11-29T07:46:21.488Z,102308.34
2022-11-29T07:48:54.027Z,102312.75
2022-11-29T07:51:27.147Z,102311.94
2022-11-29T07:53:57.985Z,102316.25
2022-11-29T07:56:29.536Z,102314.41
2022-11-29T07:59:04.502Z,102314.47
2022-11-29T08:01:34.966Z,102305.72
2022-11-29T08:04:06.207Z,102301.47
2022-11-29T08:06:37.538Z,102303.19
2022-11-29T08:09:09.455Z,102307.59
2022-11-29T08:11:40.785Z,102304.91
2022-11-29T08:14:15.689Z,102306.69
2022-11-29T08:16:45.824Z,102301.66
2022-11-29T08:19:16.410Z,102312.81
2022-11-29T08:21:48.597Z,102305.16
2022-11-29T08:24:22.647Z,102312.25
2022-11-29T08:26:53.058Z,102314.59
2022-11-29T08:29:25.718Z,102309.56
2022-11-29T08:31:59.967Z,102307.78
2022-11-29T08:34:30.987Z,102314.84
2022-11-29T08:37:01.316Z,102314.03
2022-11-29T08:39:32.357Z,102314.03
2022-11-29T08:42:02.719Z,102309.81
2022-11-29T08:44:37.077Z,102307.25
2022-11-29T08:47:25.316Z,102305.47
2022-11-29T08:50:05.296Z,102307.25
2022-11-29T08:52:55.698Z,102302.84
2022-11-29T08:55:29.396Z,102300.13
2022-11-29T08:58:04.916Z,102301.13
2022-11-29T09:00:38.407Z,102303.75
2022-11-29T09:03:28.206Z,102304.63
2022-11-29T09:06:00.047Z,102302.09
2022-11-29T09:08:30.287Z,102298.75
2022-11-29T09:11:05.727Z,102298.66
2022-11-29T09:13:36.318Z,102300.44
2022-11-29T09:16:12.953Z,102305.03
2022-11-29T09:18:48.550Z,102302.47
2022-11-29T09:21:21.968Z,102291.28
2022-11-29T09:23:59.303Z,102299.13
2022-11-29T09:26:33.269Z,102303.31
2022-11-29T09:29:07.167Z,102291.13
2022-11-29T09:31:39.642Z,102293.81
2022-11-29T09:34:10.857Z,102293.22
2022-11-29T09:36:43.386Z,102297.50
2022-11-29T09:39:14.366Z,102292.25
2022-11-29T09:42:02.579Z,102293.22
2022-11-29T09:44:45.045Z,102289.78
2022-11-29T09:47:33.606Z,102288.00
2022-11-29T09:50:25.474Z,102291.00
2022-11-29T09:53:18.693Z,102296.25
2022-11-29T09:56:11.916Z,102295.41
2022-11-29T09:58:49.876Z,102292.81
2022-11-29T10:01:28.818Z,102297.13
2022-11-29T10:04:07.660Z,102305.19
2022-11-29T10:06:42.888Z,102299.13
2022-11-29T10:09:22.585Z,102298.34
2022-11-29T10:12:05.308Z,102295.63
2022-11-29T10:14:45.060Z,102300.06
2022-11-29T10:17:26.590Z,102303.63
2022-11-29T10:20:05.961Z,102302.94
2022-11-29T10:22:49.639Z,102301.25
2022-11-29T10:25:26.277Z,102297.88
2022-11-29T10:27:57.012Z,102298.78
2022-11-29T10:30:27.820Z,102295.25
2022-11-29T10:33:00.625Z,102300.44
2022-11-29T10:35:36.357Z,102299.53
2022-11-29T10:38:30.374Z,102300.63
2022-11-29T10:41:04.734Z,102301.56
2022-11-29T10:43:37.720Z,102300.63
2022-11-29T10:46:17.029Z,102308.41
2022-11-29T10:48:47.626Z,102305.97
2022-11-29T10:51:20.779Z,102312.09
2022-11-29T10:53:56.762Z,102306.88
2022-11-29T10:56:35.877Z,102302.47
2022-11-29T10:59:09.786Z,102306.94
2022-11-29T11:01:45.879Z,102303.34
2022-11-29T11:04:25.247Z,102306.88
2022-11-29T11:07:01.997Z,102312.16
2022-11-29T11:09:38.022Z,102306.09
2022-11-29T11:12:18.665Z,102314.13
2022-11-29T11:14:49.335Z,102312.31
2022-11-29T11:17:26.594Z,102314.25
2022-11-29T11:19:59.128Z,102311.63
2022-11-29T11:22:33.317Z,102315.09
2022-11-29T11:25:07.636Z,102318.53
2022-11-29T11:27:41.408Z,102311.56
2022-11-29T11:30:23.748Z,102303.66
2022-11-29T11:33:19.666Z,102313.34
2022-11-29T11:36:07.508Z,102315.91
2022-11-29T11:38:41.889Z,102315.09
2022-11-29T11:41:49.776Z,102310.75
2022-11-29T11:44:53.792Z,102318.66
2022-11-29T11:47:26.266Z,102315.22
2022-11-29T11:50:09.786Z,102312.53
2022-11-29T11:52:50.469Z,102311.63
2022-11-29T11:55:35.098Z,102315.16
2022-11-29T11:58:18.204Z,102315.16
2022-11-29T12:01:09.399Z,102319.34
2022-11-29T12:03:50.169Z,102315.00
2022-11-29T12:06:42.819Z,102319.34
2022-11-29T12:09:23.223Z,102321.16
2022-11-29T12:12:04.126Z,102317.63
2022-11-29T12:14:45.056Z,102322.88
2022-11-29T12:17:21.025Z,102325.56
2022-11-29T12:20:14.553Z,102322.03
2022-11-29T12:22:54.952Z,102321.16
2022-11-29T12:25:34.171Z,102329.97
2022-11-29T12:28:17.091Z,102322.88
2022-11-29T12:30:56.485Z,102322.88
2022-11-29T12:33:40.546Z,102325.56
2022-11-29T12:36:21.887Z,102329.00
2022-11-29T12:39:09.099Z,102328.16
2022-11-29T12:41:53.822Z,102291.22
2022-11-29T12:44:55.942Z,102337.69
2022-11-29T12:47:40.321Z,102340.28
2022-11-29T12:50:30.453Z,102344.78
2022-11-29T12:53:25.539Z,102341.03
2022-11-29T12:56:13.969Z,102339.22
2022-11-29T12:59:07.691Z,102339.28
2022-11-29T13:01:56.950Z,102346.25
2022-11-29T13:04:36.773Z,102342.16
2022-11-29T13:07:20.266Z,102344.63
2022-11-29T13:10:18.018Z,102353.22
2022-11-29T13:12:53.872Z,102347.00
2022-11-29T13:15:26.842Z,102354.94
2022-11-29T13:18:08.857Z,102360.91
2022-11-29T13:20:47.560Z,102349.56
2022-11-29T13:23:45.895Z,102356.59
2022-11-29T13:26:19.922Z,102355.69
2022-11-29T13:28:52.071Z,102366.97
2022-11-29T13:31:25.286Z,102361.66
2022-11-29T13:34:06.015Z,102366.81
2022-11-29T13:36:47.694Z,102368.59
2022-11-29T13:39:34.167Z,102365.91
2022-11-29T13:42:13.158Z,102363.31
2022-11-29T13:44:53.514Z,102362.34
2022-11-29T13:47:24.302Z,102365.03
2022-11-29T13:50:00.334Z,102373.59
2022-11-29T13:52:45.237Z,102368.38
2022-11-29T13:55:31.606Z,102366.69
2022-11-29T13:58:24.463Z,102337.69
2022-11-29T14:01:01.243Z,102376.91
2022-11-29T14:03:37.341Z,102376.06
2022-11-29T14:06:18.613Z,102376.13
2022-11-29T14:09:24.431Z,102380.47
2022-11-29T14:12:05.338Z,102380.41
2022-11-29T14:14:41.822Z,102376.91
2022-11-29T14:17:35.252Z,102377.72
2022-11-29T14:20:51.535Z,102382.84
2022-11-29T14:23:41.987Z,102382.06
2022-11-29T14:26:30.782Z,102389.09
2022-11-29T14:29:02.091Z,102381.06
2022-11-29T14:31:58.153Z,102381.97
2022-11-29T14:34:49.163Z,102383.69
2022-11-29T14:37:42.950Z,102386.16
2022-11-29T14:40:35.236Z,102384.38
2022-11-29T14:43:17.102Z,102388.69
2022-11-29T14:45:48.143Z,102390.41
2022-11-29T14:48:28.702Z,102393.81
2022-11-29T14:51:13.024Z,102384.25
2022-11-29T14:53:44.879Z,102392.94
2022-11-29T14:56:42.808Z,102386.81
2022-11-29T14:59:50.576Z,102392.84
2022-11-29T15:02:50.333Z,102389.41
2022-11-29T15:05:25.633Z,102388.38
2022-11-29T15:08:09.212Z,102389.34
2022-11-29T15:10:44.193Z,102391.13
2022-11-29T15:13:21.223Z,102397.13
2022-11-29T15:16:22.119Z,102403.25
2022-11-29T15:19:24.530Z,102406.00
2022-11-29T15:22:07.812Z,102398.84
2022-11-29T15:25:31.453Z,102393.63
2022-11-29T15:28:03.131Z,102400.47
2022-11-29T15:30:37.492Z,102399.56
2022-11-29T15:33:10.563Z,102400.38
2022-11-29T15:35:52.402Z,102407.28
2022-11-29T15:38:24.172Z,102402.69
2022-11-29T15:40:56.482Z,102396.63
2022-11-29T15:43:32.821Z,102405.38
2022-11-29T15:46:06.321Z,102410.53
2022-11-29T15:48:36.971Z,102400.91
2022-11-29T15:51:18.485Z,102413.97
2022-11-29T15:54:10.101Z,102405.06
2022-11-29T15:56:52.488Z,102407.59
2022-11-29T15:59:39.219Z,102413.81
2022-11-29T16:02:41.142Z,102421.56
2022-11-29T16:05:22.597Z,102408.28
2022-11-29T16:07:57.947Z,102416.34
2022-11-29T16:10:37.429Z,102417.00
2022-11-29T16:13:26.078Z,102414.47
2022-11-29T16:16:10.715Z,102423.13
2022-11-29T16:18:44.559Z,102420.53
2022-11-29T16:21:26.968Z,102420.41
2022-11-29T16:23:58.517Z,102417.81
2022-11-29T16:26:32.637Z,102420.41
2022-11-29T16:29:04.641Z,102427.38
2022-11-29T16:31:40.693Z,102425.56
2022-11-29T16:34:26.995Z,102427.28
2022-11-29T16:37:06.720Z,102436.94
2022-11-29T16:39:40.051Z,102432.53
2022-11-29T16:42:24.968Z,102440.28
2022-11-29T16:45:29.879Z,102442.09
2022-11-29T16:48:00.693Z,102432.44
2022-11-29T16:50:36.738Z,102438.56
2022-11-29T16:53:35.227Z,102435.06
2022-11-29T16:56:06.778Z,102441.03
2022-11-29T16:59:16.665Z,102444.56
2022-11-29T17:01:30.057Z,102447.97
2022-11-29T17:04:08.584Z,102453.19
2022-11-29T17:06:42.315Z,102451.50
2022-11-29T17:09:23.113Z,102447.88
2022-11-29T17:11:54.405Z,102451.41
2022-11-29T17:14:25.712Z,102464.47
2022-11-29T17:16:56.267Z,102457.38
2022-11-29T17:19:26.666Z,102465.22
2022-11-29T17:22:03.680Z,102467.84
2022-11-29T17:24:36.375Z,102471.34
2022-11-29T17:27:07.656Z,102476.56
2022-11-29T17:29:41.134Z,102475.59
2022-11-29T17:32:13.642Z,102479.94
2022-11-29T17:34:45.528Z,102480.09
2022-11-29T17:37:18.249Z,102483.44
2022-11-29T17:39:49.368Z,102478.84
2022-11-29T17:42:23.220Z,102471.75
2022-11-29T17:44:53.545Z,102482.22
2022-11-29T17:47:24.849Z,102477.06
2022-11-29T17:49:55.564Z,102490.13
2022-11-29T17:52:28.337Z,102484.09
2022-11-29T17:55:01.061Z,102482.28
2022-11-29T17:57:33.811Z,102488.34
2022-11-29T18:00:06.747Z,102491.94
2022-11-29T18:02:37.944Z,102487.44
2022-11-29T18:05:09.697Z,102489.16
2022-11-29T18:07:58.264Z,102502.31
2022-11-29T18:10:29.959Z,102489.94
2022-11-29T18:13:01.568Z,102502.03
2022-11-29T18:15:34.471Z,102497.72
2022-11-29T18:18:07.091Z,102489.03
2022-11-29T18:20:37.948Z,102489.94
2022-11-29T18:23:10.559Z,102493.31
2022-11-29T18:25:41.050Z,102500.06
2022-11-29T18:28:14.731Z,102496.56
2022-11-29T18:30:45.912Z,102493.03
2022-11-29T18:33:17.149Z,102497.63
2022-11-29T18:35:47.960Z,102506.28
2022-11-29T18:38:21.872Z,102506.94
2022-11-29T18:40:53.940Z,102508.56
2022-11-29T18:43:29.080Z,102496.41
2022-11-29T18:45:59.638Z,102502.44
2022-11-29T18:48:33.147Z,102506.78
2022-11-29T18:51:05.428Z,102507.75
2022-11-29T18:53:46.930Z,102500.66
2022-11-29T18:56:20.169Z,102502.44
2022-11-29T18:58:58.474Z,102503.25
2022-11-29T19:01:31.600Z,102513.63
2022-11-29T19:04:04.519Z,102519.59
2022-11-29T19:06:40.017Z,102516.06
2022-11-29T19:09:16.069Z,102515.88
2022-11-29T19:11:46.649Z,102518.50
2022-11-29T19:14:20.920Z,102512.22
2022-11-29T19:16:51.960Z,102521.84
2022-11-29T19:19:26.609Z,102518.06
2022-11-29T19:21:57.640Z,102518.16
2022-11-29T19:24:29.748Z,102524.13
2022-11-29T19:27:01.558Z,102518.81
2022-11-29T19:29:39.387Z,102517.91
2022-11-29T19:32:12.245Z,102521.50
2022-11-29T19:34:44.529Z,102524.94
2022-11-29T19:37:20.768Z,102524.13
2022-11-29T19:39:55.797Z,102517.81
2022-11-29T19:43:13.099Z,102525.56
2022-11-29T19:45:44.500Z,102517.81
2022-11-29T19:48:17.353Z,102516.91
2022-11-29T19:50:54.611Z,102518.72
2022-11-29T19:53:28.822Z,102516.91
2022-11-29T19:56:08.013Z,102527.34
2022-11-29T19:58:42.076Z,102520.41
2022-11-29T20:01:24.140Z,102523.13
2022-11-29T20:04:00.258Z,102515.38
2022-11-29T20:06:38.954Z,102520.53
2022-11-29T20:09:24.961Z,102530.97
2022-11-29T20:11:58.960Z,102527.34
2022-11-29T20:14:29.638Z,102530.97
2022-11-29T20:17:02.749Z,102530.97
2022-11-29T20:19:38.409Z,102530.16
2022-11-29T20:22:13.423Z,102531.88
2022-11-29T20:24:45.546Z,102525.84
2022-11-29T20:27:19.962Z,102525.00
2022-11-29T20:29:50.823Z,102521.69
2022-11-29T20:32:25.073Z,102524.47
2022-11-29T20:34:59.909Z,102527.06
2022-11-29T20:37:50.419Z,102526.81
2022-11-29T20:40:31.150Z,102528.72
2022-11-29T20:43:17.893Z,102524.31
2022-11-29T20:45:54.416Z,102527.81
2022-11-29T20:48:27.002Z,102531.41
2022-11-29T20:51:03.990Z,102486.22
2022-11-29T20:53:37.929Z,102537.53
2022-11-29T20:56:10.976Z,102541.03
2022-11-29T20:58:44.508Z,102538.28
2022-11-29T21:01:16.555Z,102540.06
2022-11-29T21:03:51.391Z,102543.66
2022-11-29T21:06:27.394Z,102546.09
2022-11-29T21:09:02.037Z,102540.06
2022-11-29T21:11:32.840Z,102547.91
2022-11-29T21:14:06.908Z,102549.84
2022-11-29T21:16:38.022Z,102560.31
2022-11-29T21:19:08.825Z,102554.09
2022-11-29T21:21:54.308Z,102558.34
2022-11-29T21:24:34.210Z,102558.34
2022-11-29T21:27:05.620Z,102560.06
2022-11-29T21:29:43.011Z,102560.97
2022-11-29T21:32:23.400Z,102547.00
2022-11-29T21:34:54.948Z,102551.34
2022-11-29T21:37:31.916Z,102556.56
2022-11-29T21:40:07.889Z,102558.44
2022-11-29T21:42:40.631Z,102555.00
2022-11-29T21:45:15.923Z,102548.81
2022-11-29T21:47:46.919Z,102548.81
2022-11-29T21:50:18.227Z,102555.75
2022-11-29T21:52:54.131Z,102559.34
2022-11-29T21:55:35.678Z,102551.34
2022-11-29T21:58:06.428Z,102566.28
2022-11-29T22:00:45.269Z,102561.78
2022-11-29T22:03:28.904Z,102566.28
2022-11-29T22:06:05.328Z,102563.75
2022-11-29T22:08:37.369Z,102561.13
2022-11-29T22:11:15.428Z,102574.28
2022-11-29T22:14:00.260Z,102568.97
2022-11-29T22:16:34.720Z,102568.06
2022-11-29T22:19:05.857Z,102561.13
2022-11-29T22:21:36.730Z,102570.75
2022-11-29T22:24:07.630Z,102563.75
2022-11-29T22:26:39.611Z,102564.75
2022-11-29T22:29:10.111Z,102567.25
2022-11-29T22:31:43.307Z,102577.69
2022-11-29T22:34:13.951Z,102569.88
2022-11-29T22:36:45.009Z,102576.88
2022-11-29T22:39:15.421Z,102570.69
2022-11-29T22:41:53.948Z,102573.28
2022-11-29T22:44:26.350Z,102574.19
2022-11-29T22:46:58.931Z,102575.09
2022-11-29T22:49:33.669Z,102575.00
2022-11-29T22:52:04.947Z,102583.75
2022-11-29T22:54:35.518Z,102577.69
2022-11-29T22:57:06.540Z,102589.06
2022-11-29T22:59:37.069Z,102585.75
2022-11-29T23:02:09.996Z,102590.97
2022-11-29T23:04:40.990Z,102582.22
2022-11-29T23:07:12.340Z,102585.66
2022-11-29T23:09:42.681Z,102587.34
2022-11-29T23:12:13.986Z,102593.50
2022-11-29T23:14:45.276Z,102591.78
2022-11-29T23:17:17.997Z,102595.28
2022-11-29T23:19:48.261Z,102593.66
2022-11-29T23:22:19.081Z,102591.78
2022-11-29T23:24:49.990Z,102585.66
2022-11-29T23:27:21.288Z,102583.84
2022-11-29T23:29:52.033Z,102583.94
2022-11-29T23:32:24.518Z,102582.03
2022-11-29T23:34:55.239Z,102575.09
2022-11-29T23:37:26.231Z,102573.50
2022-11-29T23:39:56.921Z,102580.50
2022-11-29T23:42:28.042Z,102580.50
2022-11-29T23:44:58.627Z,102574.38
2022-11-29T23:47:31.210Z,102576.09
2022-11-29T23:50:01.650Z,102576.88
2022-11-29T23:52:32.720Z,102579.50
2022-11-29T23:55:06.583Z,102580.31
2022-11-29T23:57:37.661Z,102577.63
